ADDS METAR Data INFO
IDs: Format: Raw Decoded Include TAF

Data at: 1810 UTC 14 Aug 2018

PABT 141753Z 32004KT 10SM FEW024 BKN033 OVC050 07/03 A2974 RMK AO2 SLP081 60009 T00670033 10067 20050 53014
PABT 141653Z 35005KT 10SM FEW018 BKN035 OVC050 06/03 A2973 RMK AO2 SLP076 SHRA VC N AND VC W-NW T00610033
PABT 141553Z 35006KT 10SM SCT024 BKN035 OVC050 06/03 A2972 RMK AO2 RAE25 SLP071 P0000 T00560028
PABT 141453Z 32004KT 5SM -RA BR BKN026 OVC035 05/03 A2970 RMK AO2 SLP067 P0000 60008 T00500028 51015 $
PABT 141353Z 34005KT 3SM -RA BR BKN024 OVC029 05/03 A2969 RMK AO2 SLP062 P0003 T00500033 $
PABT 141253Z 35003KT 3SM -RA BR OVC025 06/04 A2968 RMK AO2 RAB1154 SLP060 P0003 T00610039 $
PABT 141153Z COR 32005KT 10SM -RA BKN023 OVC030 06/04 A2966 RMK AO2 SLP052 P0004 60009 70011 T00560039 10133 20056 51024 $
PABT 141053Z VRB04KT 10SM -RA FEW023 BKN045 OVC055 07/03 A2965 RMK AO2 PRESRR SLP046 P0002 T00670033 $
PABT 140953Z 35005KT 10SM -RA FEW024 BKN041 BKN050 07/03 A2961 RMK AO2 RAB0858 SLP036 P0001 T00720028 $
PABT 140853Z 36006KT 10SM FEW032 BKN060 BKN095 09/00 A2959 RMK AO2 SLP026 60000 T00940000 401610094 51022 $
PABT 140753Z 35005KT 10SM FEW032 BKN070 BKN090 10/02 A2957 RMK AO2 RAB01E51 SLP021 60000 T01000017 $
PABT 140653Z VRB05KT 10SM FEW032 SCT060 BKN090 BKN140 12/02 A2955 RMK AO2 SLP012 T01170017 $
PABT 140553Z 28005KT 10SM FEW036 SCT060 BKN090 BKN140 13/09 A2952 RMK AO2 SLP004 T01330089 10156 20133 53008 $
PABT 140453Z 00000KT 10SM FEW032 SCT080 SCT110 BKN140 14/11 A2951 RMK AO2 SLP000 T01440106 $
PABT 140353Z 14003KT 10SM FEW032 SCT080 SCT110 BKN140 14/09 A2950 RMK AO2 SLP997 T01440094 $
PABT 140253Z 14004KT 10SM FEW034 SCT070 SCT110 BKN140 15/11 A2950 RMK AO2 SLP995 T01500106 56001 $
PABT 140153Z 15005KT 10SM FEW034 SCT070 SCT110 BKN140 15/10 A2950 RMK AO2 SLP996 T01500100 $
PABT 140053Z 14006KT 10SM FEW034 SCT080 SCT110 BKN140 14/11 A2950 RMK AO2 SLP996 SHRA DSNT N-VC SE T01440106 $
PABT 132353Z COR 13008KT 10SM FEW038 SCT080 SCT110 BKN140 14/11 A2950 RMK AO2 SLP996 SHRA DSNT N-VC SE 60001 T01440106 10161 20122 53003 $
PABT 132253Z 00000KT 10SM FEW038 SCT048 SCT110 BKN140 16/09 A2949 RMK AO2 SLP993 SHRA DSNT N-VC E T01610089 $
PABT 132153Z 33003KT 10SM FEW032 SCT055 BKN110 BKN140 15/10 A2949 RMK AO2 SLP995 SHRA VC E-SE T01500100
PABT 132053Z 03006KT 10SM FEW028 BKN055 BKN110 14/08 A2949 RMK AO2 SLP994 60001 T01390083 53001
PABT 131953Z 36003KT 10SM FEW026 FEW048 BKN100 14/11 A2949 RMK AO2 SLP993 T01390106
PABT 131853Z 01003KT 10SM FEW026 SCT070 BKN110 13/10 A2949 RMK AO2 SLP993 T01280100
PABT 131753Z 01004KT 10SM FEW036 BKN085 BKN110 12/09 A2949 RMK AO2 RAE17 SLP993 P0000 60001 T01220094 10122 20100 56001
PABT 131653Z 33003KT 10SM -RA FEW036 BKN050 OVC100 11/09 A2949 RMK AO2 RAB1554 SLP993 P0000 T01060094
PABT 131553Z COR 36003KT 10SM FEW036 BKN050 OVC075 10/09 A2949 RMK AO2 RAB12E47 SLP993 P0000 T01000089 $
PABT 131453Z 00000KT 10SM BCFG SCT036 BKN050 OVC075 10/09 A2949 RMK AO2 SLP994 FGBANK NE T01000089 58002 $
PABT 131353Z 36003KT 10SM SCT036 BKN050 BKN140 10/09 A2950 RMK AO2 SLP996 T01000089 $
PABT 131253Z 00000KT 10SM BKN034 BKN050 11/09 A2950 RMK AO2 SLP996 T01060094 $
PABT 131153Z 36003KT 10SM BKN030 OVC050 11/09 A2950 RMK AO2 RAE15 SLP995 BINOVC VC NW P0000 60019 70032 T01060094 10122 20106 55001 $
PABT 131053Z 36003KT 10SM -RA BKN030 OVC050 11/10 A2950 RMK AO2 SLP995 P0000 T01110100 $
PABT 131040Z 36003KT 10SM -RA BKN030 OVC050 11/10 A2950 RMK AO2 P0000 T01110100 $
PABT 130953Z 00000KT 7SM -RA BKN026 OVC045 11/10 A2950 RMK AO2 SLP996 P0001 T01110100 $
PABT 130853Z VRB03KT 7SM -RA BKN024 OVC045 11/11 A2950 RMK AO2 SLP997 P0005 60017 T01110106 401830078 57001 $
PABT 130753Z 01003KT 8SM -RA BKN024 OVC045 11/11 A2950 RMK AO2 SLP997 P0005 T01110106 $
PABT 130653Z 04007KT 8SM -RA BKN028 OVC060 12/10 A2951 RMK AO2 SLP999 P0007 T01170100 $
PABT 130643Z 04006KT 5SM RA BR BKN028 OVC060 12/10 A2951 RMK AO2 P0006 T01170100 $